Debbie — 3FSN4 — position and weather

sailwx.info

Track history (hours):
 
Tides and Currents Weather Stations Pressure Air Temp Water Temp Dewpoint Dewpoint Depression Visibility Wind Speed Wind Dir Waves Ship Positions

Debbie

Last reported at 2017-Nov-18 14:06 UTC. Time now 2017-Nov-23 15:16 UTC.
Position N 32°52' E 034°59'.

Length 126 m; draft 8.6 m.

Type: Cargo ship. MMSI: 373623000.

Date/timePositionNaut miles runAvg speedWind from/ knotsBaromVisibWave heightAir tempDewpointWater temp
2017-Nov-18 14:06N 32°52' E 034°59'1 6.4
2017-Nov-18 14:00N 32°52' E 034°58'4 8.4
2017-Nov-18 13:30N 32°53' E 034°53'4 8.6
2017-Nov-18 13:00N 32°54' E 034°48'4 8.8
2017-Nov-18 12:30N 32°55' E 034°43'7 8.9
2017-Nov-18 11:42N 32°57' E 034°35'2 8.9
2017-Nov-18 11:27N 32°57' E 034°32'122 5.5
2017-Nov-17 13:07N 34°43' E 033°19'0 0.0
2017-Nov-16 19:10N 34°43' E 033°19'0 0.0
2017-Nov-16 17:25N 34°43' E 033°19'0 0.0
2017-Nov-16 16:34N 34°43' E 033°19'0 0.1
2017-Nov-16 16:28N 34°43' E 033°19'  
2017-Nov-12 01:32N 32°52' E 034°58'1 6.1
2017-Nov-12 01:26N 32°52' E 034°58'4 8.1
2017-Nov-12 00:59N 32°53' E 034°53'  
Track history (hours):
 
Tides and Currents Weather Stations Pressure Air Temp Water Temp Dewpoint Dewpoint Depression Visibility Wind Speed Wind Dir Waves Ship Positions

Debbie

Last reported at 2017-Nov-18 14:06 UTC. Time now 2017-Nov-23 15:16 UTC.
Position N 32°52' E 034°59'.

Length 126 m; draft 8.6 m.

Type: Cargo ship. MMSI: 373623000.

Date/timePositionNaut miles runAvg speedWind from/ knotsBaromVisibWave heightAir tempDewpointWater temp
2017-Nov-18 14:06N 32°52' E 034°59'1 6.4
2017-Nov-18 14:00N 32°52' E 034°58'4 8.4
2017-Nov-18 13:30N 32°53' E 034°53'4 8.6
2017-Nov-18 13:00N 32°54' E 034°48'4 8.8
2017-Nov-18 12:30N 32°55' E 034°43'7 8.9
2017-Nov-18 11:42N 32°57' E 034°35'2 8.9
2017-Nov-18 11:27N 32°57' E 034°32'122 5.5
2017-Nov-17 13:07N 34°43' E 033°19'0 0.0
2017-Nov-16 19:10N 34°43' E 033°19'0 0.0
2017-Nov-16 17:25N 34°43' E 033°19'0 0.0
2017-Nov-16 16:34N 34°43' E 033°19'0 0.1
2017-Nov-16 16:28N 34°43' E 033°19'  
2017-Nov-12 01:32N 32°52' E 034°58'1 6.1
2017-Nov-12 01:26N 32°52' E 034°58'4 8.1
2017-Nov-12 00:59N 32°53' E 034°53'  

Dump ship's entire track history